createdAt,value
2023-02-16T00:00:03.109Z,1.64
2023-02-16T00:01:03.461Z,1.64
2023-02-16T00:02:03.039Z,1.57
2023-02-16T00:03:02.894Z,1.74
2023-02-16T00:04:02.801Z,1.68
2023-02-16T00:05:02.729Z,1.79
2023-02-16T00:06:02.662Z,1.82
2023-02-16T00:07:02.586Z,1.95
2023-02-16T00:08:02.554Z,1.89
2023-02-16T00:09:02.486Z,1.90
2023-02-16T00:10:02.461Z,1.93
2023-02-16T00:11:02.622Z,2.08
2023-02-16T00:12:02.245Z,2.12
2023-02-16T00:13:02.162Z,2.09
2023-02-16T00:14:02.094Z,2.08
2023-02-16T00:15:02.024Z,2.23
2023-02-16T00:16:02.028Z,2.12
2023-02-16T00:17:01.890Z,2.20
2023-02-16T00:18:01.811Z,2.23
2023-02-16T00:19:01.742Z,2.33
2023-02-16T00:20:01.666Z,2.38
2023-02-16T00:21:01.843Z,2.44
2023-02-16T00:22:01.543Z,2.40
2023-02-16T00:23:01.455Z,2.40
2023-02-16T00:24:01.393Z,2.33
2023-02-16T00:25:01.327Z,2.30
2023-02-16T00:26:01.248Z,2.27
2023-02-16T00:27:01.185Z,2.29
2023-02-16T00:28:01.102Z,2.26
2023-02-16T00:29:01.046Z,2.25
2023-02-16T00:30:01.064Z,2.26
2023-02-16T00:31:01.056Z,2.33
2023-02-16T00:32:00.949Z,2.43
2023-02-16T00:33:00.754Z,2.33
2023-02-16T00:34:00.693Z,2.47
2023-02-16T00:35:00.640Z,2.45
2023-02-16T00:36:00.546Z,2.45
2023-02-16T00:37:00.472Z,2.43
2023-02-16T00:38:00.396Z,2.48
2023-02-16T00:39:00.327Z,2.47
2023-02-16T00:40:00.263Z,2.48
2023-02-16T00:41:00.328Z,2.48
2023-02-16T00:42:00.152Z,2.37
2023-02-16T00:43:00.051Z,2.32
2023-02-16T00:43:59.992Z,2.32
2023-02-16T00:44:59.912Z,2.33
2023-02-16T00:45:59.851Z,2.36
2023-02-16T00:46:59.807Z,2.37
2023-02-16T00:47:59.772Z,2.25
2023-02-16T00:48:59.697Z,2.14
2023-02-16T00:49:59.633Z,2.09
2023-02-16T00:50:59.486Z,2.04
2023-02-16T00:51:59.525Z,2.00
2023-02-16T00:52:59.376Z,2.08
2023-02-16T00:53:59.341Z,2.05
2023-02-16T00:54:59.237Z,2.05
2023-02-16T00:55:59.175Z,2.02
2023-02-16T00:56:59.062Z,2.02
2023-02-16T00:57:59.035Z,1.95
2023-02-16T00:58:59.879Z,1.93
2023-02-16T00:59:58.887Z,2.07
2023-02-16T01:00:59.348Z,2.00
2023-02-16T01:01:58.779Z,2.01
2023-02-16T01:02:58.809Z,1.93
2023-02-16T01:03:58.569Z,1.93
2023-02-16T01:04:58.500Z,2.00
2023-02-16T01:05:58.432Z,2.01
2023-02-16T01:06:58.356Z,2.01
2023-02-16T01:07:58.283Z,2.00
2023-02-16T01:08:58.210Z,2.09
2023-02-16T01:09:58.148Z,2.12
2023-02-16T01:10:58.066Z,2.14
2023-02-16T01:11:58.037Z,2.12
2023-02-16T01:12:57.924Z,2.09
2023-02-16T01:13:57.871Z,2.12
2023-02-16T01:14:57.793Z,2.11
2023-02-16T01:15:57.778Z,2.12
2023-02-16T01:16:57.650Z,2.09
2023-02-16T01:17:57.573Z,2.09
2023-02-16T01:18:57.522Z,2.08
2023-02-16T01:19:57.463Z,2.09
2023-02-16T01:20:57.374Z,2.11
2023-02-16T01:21:57.291Z,2.07
2023-02-16T01:22:57.219Z,2.09
2023-02-16T01:23:57.148Z,2.05
2023-02-16T01:24:57.078Z,2.11
2023-02-16T01:25:57.004Z,2.07
2023-02-16T01:26:56.964Z,2.04
2023-02-16T01:27:56.868Z,1.92
2023-02-16T01:28:56.801Z,1.89
2023-02-16T01:29:56.751Z,1.85
2023-02-16T01:30:56.784Z,1.81
2023-02-16T01:31:56.705Z,1.81
2023-02-16T01:32:56.512Z,1.89
2023-02-16T01:33:56.446Z,1.79
2023-02-16T01:34:56.378Z,1.79
2023-02-16T01:35:56.297Z,1.82
2023-02-16T01:36:56.236Z,1.82
2023-02-16T01:37:56.157Z,1.82
2023-02-16T01:38:56.090Z,1.74
2023-02-16T01:39:56.013Z,1.82
2023-02-16T01:40:55.949Z,1.71
2023-02-16T01:41:55.884Z,1.71
2023-02-16T01:42:55.813Z,1.64
2023-02-16T01:43:55.731Z,1.61
2023-02-16T01:44:55.670Z,1.57
2023-02-16T01:45:55.592Z,1.67
2023-02-16T01:46:55.523Z,1.65
2023-02-16T01:47:55.448Z,1.63
2023-02-16T01:48:55.382Z,1.50
2023-02-16T01:49:55.314Z,1.46
2023-02-16T01:50:55.345Z,1.47
2023-02-16T01:51:55.169Z,1.36
2023-02-16T01:52:55.103Z,1.36
2023-02-16T01:53:55.027Z,1.28
2023-02-16T04:15:13.404Z,1.35
2023-02-16T04:16:05.004Z,1.38
2023-02-16T04:18:10.384Z,1.36
2023-02-16T04:19:10.301Z,1.39
2023-02-16T04:20:10.360Z,1.42
2023-02-16T04:21:19.836Z,1.52
2023-02-16T04:23:23.230Z,1.42
2023-02-16T04:24:23.115Z,1.49
2023-02-16T04:26:30.850Z,1.60
2023-02-16T04:27:28.437Z,1.65
2023-02-16T04:29:34.177Z,1.65
2023-02-16T04:30:24.115Z,1.71
2023-02-16T04:31:32.843Z,1.79
2023-02-16T04:33:39.063Z,1.67
2023-02-16T04:34:37.954Z,1.75
2023-02-16T04:36:23.633Z,1.75
2023-02-16T04:37:23.556Z,1.83
2023-02-16T04:38:23.489Z,1.71
2023-02-16T04:39:23.422Z,1.68
2023-02-16T04:40:23.343Z,1.74
2023-02-16T04:41:23.273Z,1.64
2023-02-16T04:42:23.200Z,1.70
2023-02-16T04:43:23.130Z,1.68
2023-02-16T04:44:23.063Z,1.79
2023-02-16T04:45:22.991Z,1.71
2023-02-16T04:46:23.009Z,1.79
2023-02-16T04:47:22.840Z,1.79
2023-02-16T04:48:22.775Z,1.82
2023-02-16T04:49:22.722Z,1.83
2023-02-16T04:50:22.628Z,1.90
2023-02-16T04:51:22.561Z,1.90
2023-02-16T04:52:22.490Z,2.04
2023-02-16T04:53:22.414Z,2.02
2023-02-16T04:54:22.353Z,2.00
2023-02-16T04:55:22.288Z,2.04
2023-02-16T04:56:22.213Z,2.01
2023-02-16T04:57:22.129Z,2.04
2023-02-16T04:58:22.061Z,2.01
2023-02-16T04:59:22.007Z,2.01
2023-02-16T05:00:21.919Z,2.05
2023-02-16T05:01:21.889Z,1.93
2023-02-16T05:02:21.776Z,1.81
2023-02-16T05:03:21.729Z,1.82
2023-02-16T05:04:21.700Z,1.81
2023-02-16T05:05:21.565Z,1.77
2023-02-16T05:06:21.571Z,1.79
2023-02-16T05:07:21.429Z,1.79
2023-02-16T05:08:21.386Z,1.85
2023-02-16T05:09:21.318Z,1.81
2023-02-16T05:10:21.208Z,1.79
2023-02-16T05:11:21.148Z,1.89
2023-02-16T05:12:21.068Z,1.92
2023-02-16T05:13:20.993Z,1.89
2023-02-16T05:14:20.934Z,1.82
2023-02-16T05:15:20.857Z,1.82
2023-02-16T05:16:20.785Z,1.82
2023-02-16T05:17:20.762Z,1.77
2023-02-16T05:18:20.782Z,1.85
2023-02-16T05:19:20.578Z,1.88
2023-02-16T05:20:20.500Z,1.81
2023-02-16T05:21:20.437Z,1.72
2023-02-16T05:22:20.355Z,1.77
2023-02-16T05:23:20.286Z,1.82
2023-02-16T05:24:20.224Z,1.82
2023-02-16T05:25:20.140Z,1.79
2023-02-16T05:26:20.072Z,1.88
2023-02-16T05:27:20.008Z,1.85
2023-02-16T05:28:19.929Z,1.92
2023-02-16T05:29:19.870Z,1.92
2023-02-16T05:30:19.841Z,1.89
2023-02-16T05:31:19.844Z,1.89
2023-02-16T05:32:19.701Z,1.89
2023-02-16T05:33:19.582Z,2.00
2023-02-16T05:34:19.517Z,2.02
2023-02-16T05:35:19.447Z,2.04
2023-02-16T05:36:19.362Z,2.02
2023-02-16T05:37:19.323Z,1.95
2023-02-16T05:38:19.225Z,2.02
2023-02-16T05:39:19.160Z,2.00
2023-02-16T05:40:19.083Z,1.95
2023-02-16T05:41:19.014Z,1.89
2023-02-16T05:42:18.950Z,1.82
2023-02-16T05:43:18.874Z,1.79
2023-02-16T05:44:18.807Z,1.77
2023-02-16T05:45:18.742Z,1.82
2023-02-16T05:46:18.690Z,1.81
2023-02-16T05:47:18.645Z,1.79
2023-02-16T05:48:18.526Z,1.83
2023-02-16T05:49:18.455Z,1.77
2023-02-16T05:50:18.393Z,1.79
2023-02-16T05:51:18.318Z,1.79
2023-02-16T05:52:18.243Z,1.74
2023-02-16T05:53:18.170Z,1.65
2023-02-16T05:54:18.121Z,1.68
2023-02-16T05:55:18.030Z,1.70
2023-02-16T05:56:17.972Z,1.68
2023-02-16T05:57:17.892Z,1.70
2023-02-16T05:58:17.811Z,1.75
2023-02-16T05:59:17.788Z,1.67
2023-02-16T06:00:17.676Z,1.68
2023-02-16T06:01:17.596Z,1.64
2023-02-16T06:02:17.583Z,1.61
2023-02-16T06:03:17.462Z,1.64
2023-02-16T06:04:17.405Z,1.60
2023-02-16T06:05:17.320Z,1.56
2023-02-16T06:06:17.250Z,1.60
2023-02-16T06:07:17.174Z,1.60
2023-02-16T06:08:17.102Z,1.56
2023-02-16T06:09:17.120Z,1.61
2023-02-16T06:10:16.959Z,1.60
2023-02-16T06:11:16.888Z,1.67
2023-02-16T06:12:16.818Z,1.61
2023-02-16T06:13:16.747Z,1.64
2023-02-16T06:14:16.677Z,1.75
2023-02-16T06:15:16.615Z,1.63
2023-02-16T06:16:16.573Z,1.75
2023-02-16T06:17:16.464Z,1.75
2023-02-16T06:18:16.407Z,1.68
2023-02-16T06:19:16.337Z,1.63
2023-02-16T06:20:16.247Z,1.61
2023-02-16T06:21:16.174Z,1.65
2023-02-16T06:22:16.115Z,1.71
2023-02-16T06:23:16.037Z,1.74
2023-02-16T06:24:16.022Z,1.71
2023-02-16T06:25:15.896Z,1.82
2023-02-16T06:26:15.824Z,1.70
2023-02-16T06:27:15.758Z,1.77
2023-02-16T06:28:15.680Z,1.68
2023-02-16T06:29:15.614Z,1.67
2023-02-16T06:30:15.588Z,1.75
2023-02-16T06:31:15.622Z,1.79
2023-02-16T06:32:15.527Z,1.82
2023-02-16T06:33:15.338Z,1.75
2023-02-16T06:34:15.267Z,1.83
2023-02-16T06:35:15.190Z,1.67
2023-02-16T06:36:15.111Z,1.71
2023-02-16T06:37:15.046Z,1.68
2023-02-16T06:38:14.969Z,1.77
2023-02-16T06:39:14.908Z,1.74
2023-02-16T06:40:14.827Z,1.79
2023-02-16T06:41:14.776Z,1.77
2023-02-16T06:42:14.685Z,1.83
2023-02-16T06:43:14.613Z,1.81
2023-02-16T06:44:14.565Z,1.79
2023-02-16T06:45:14.474Z,1.82
2023-02-16T06:46:14.420Z,1.81
2023-02-16T06:47:14.331Z,1.79
2023-02-16T06:48:14.284Z,1.90
2023-02-16T06:49:14.191Z,1.93
2023-02-16T06:50:14.117Z,1.93
2023-02-16T06:51:14.076Z,1.98
2023-02-16T06:52:13.991Z,2.07
2023-02-16T06:53:14.033Z,2.05
2023-02-16T06:54:13.839Z,2.04
2023-02-16T06:55:13.783Z,2.05
2023-02-16T06:56:13.698Z,2.09
2023-02-16T06:57:13.642Z,2.09
2023-02-16T06:58:13.554Z,2.11
2023-02-16T06:59:13.483Z,2.18
2023-02-16T07:00:13.424Z,2.07
2023-02-16T07:01:13.369Z,2.19
2023-02-16T07:02:13.266Z,2.30
2023-02-16T07:03:13.209Z,2.30
2023-02-16T07:04:13.124Z,2.37
2023-02-16T07:05:13.058Z,2.32
2023-02-16T07:06:12.977Z,2.38
2023-02-16T07:07:12.917Z,2.38
2023-02-16T07:08:12.855Z,2.36
2023-02-16T07:09:13.071Z,2.33
2023-02-16T07:10:12.703Z,2.41
2023-02-16T07:11:12.639Z,2.48
2023-02-16T07:12:12.560Z,2.51
2023-02-16T07:13:12.489Z,2.44
2023-02-16T07:14:12.434Z,2.43
2023-02-16T07:15:12.346Z,2.40
2023-02-16T07:16:12.376Z,2.48
2023-02-16T07:17:12.215Z,2.50
2023-02-16T07:18:12.139Z,2.55
2023-02-16T07:19:12.081Z,2.44
2023-02-16T07:20:12.051Z,2.59
2023-02-16T07:21:11.926Z,2.59
2023-02-16T07:22:11.857Z,2.59
2023-02-16T07:23:11.803Z,2.61
2023-02-16T07:24:11.714Z,2.68
2023-02-16T07:25:11.648Z,2.66
2023-02-16T07:26:11.581Z,2.71
2023-02-16T07:27:11.504Z,2.80
2023-02-16T07:28:11.432Z,2.84
2023-02-16T07:29:11.383Z,2.89
2023-02-16T07:30:11.366Z,2.87
2023-02-16T07:31:11.432Z,2.86
2023-02-16T07:32:11.229Z,2.87
2023-02-16T07:33:11.084Z,2.84
2023-02-16T07:34:11.016Z,2.90
2023-02-16T07:35:10.957Z,2.89
2023-02-16T07:36:10.885Z,3.01
2023-02-16T07:37:10.811Z,2.97
2023-02-16T07:38:10.737Z,3.02
2023-02-16T07:39:10.670Z,3.07
2023-02-16T07:40:10.595Z,3.07
2023-02-16T07:41:11.097Z,3.10
2023-02-16T07:42:10.455Z,3.15
2023-02-16T07:43:10.392Z,3.22
2023-02-16T07:44:10.323Z,3.30
2023-02-16T07:45:10.253Z,3.34
2023-02-16T07:46:10.259Z,3.53
2023-02-16T07:47:10.112Z,3.56
2023-02-16T07:48:10.034Z,3.72
2023-02-16T07:49:09.970Z,3.80
2023-02-16T07:50:09.898Z,4.00
2023-02-16T07:51:09.834Z,4.21
2023-02-16T07:52:09.778Z,4.25
2023-02-16T07:53:11.739Z,4.28
2023-02-16T07:54:09.620Z,4.35
2023-02-16T07:55:09.663Z,4.44
2023-02-16T07:56:09.516Z,4.44
2023-02-16T07:57:09.456Z,4.51
2023-02-16T07:58:09.357Z,4.56
2023-02-16T07:59:09.280Z,4.65
2023-02-16T08:00:09.221Z,4.62
2023-02-16T08:01:09.149Z,4.77
2023-02-16T08:02:09.150Z,4.88
2023-02-16T08:03:09.115Z,4.90
2023-02-16T08:04:08.942Z,5.02
2023-02-16T08:05:08.909Z,5.15
2023-02-16T08:06:08.808Z,5.42
2023-02-16T08:07:08.752Z,5.47
2023-02-16T08:08:08.673Z,5.55
2023-02-16T08:09:08.608Z,5.77
2023-02-16T08:10:08.544Z,5.88
2023-02-16T08:11:08.474Z,5.93
2023-02-16T08:12:08.413Z,6.25
2023-02-16T08:13:08.376Z,6.19
2023-02-16T08:14:08.290Z,6.17
2023-02-16T08:15:08.216Z,6.20
2023-02-16T08:16:08.213Z,6.19
2023-02-16T08:17:08.187Z,6.13
2023-02-16T08:18:08.024Z,6.35
2023-02-16T08:19:07.967Z,6.21
2023-02-16T08:20:07.905Z,6.25
2023-02-16T08:21:07.842Z,6.30
2023-02-16T08:22:07.775Z,6.40
2023-02-16T08:23:07.721Z,6.63
2023-02-16T08:24:07.634Z,6.75
2023-02-16T08:25:07.567Z,6.65
2023-02-16T08:26:07.510Z,6.93
2023-02-16T08:27:07.470Z,6.99
2023-02-16T08:28:07.548Z,7.07
2023-02-16T08:29:07.320Z,7.23
2023-02-16T08:30:07.276Z,7.14
2023-02-16T08:31:07.339Z,7.16
2023-02-16T08:32:07.190Z,7.15
2023-02-16T08:33:07.226Z,7.18
2023-02-16T08:34:07.029Z,7.44
2023-02-16T08:35:07.244Z,7.44
2023-02-16T08:36:07.073Z,7.67
2023-02-16T08:37:06.839Z,7.89
2023-02-16T08:38:06.779Z,8.07
2023-02-16T08:39:06.727Z,8.10
2023-02-16T08:40:06.648Z,8.28
2023-02-16T08:41:06.609Z,8.68
2023-02-16T08:42:06.588Z,8.63
2023-02-16T08:43:06.475Z,8.96
2023-02-16T08:44:06.590Z,9.00
2023-02-16T08:45:06.726Z,8.98
2023-02-16T08:46:06.771Z,9.15
2023-02-16T08:47:06.257Z,9.32
2023-02-16T08:48:06.264Z,9.45
2023-02-16T08:49:06.106Z,9.55
2023-02-16T08:50:06.044Z,9.42
2023-02-16T08:51:06.094Z,9.41
2023-02-16T08:52:05.930Z,9.59
2023-02-16T08:53:05.869Z,9.71
2023-02-16T08:54:06.102Z,9.67
2023-02-16T08:55:05.754Z,9.81
2023-02-16T08:56:05.986Z,9.85
2023-02-16T08:57:05.629Z,9.67
2023-02-16T08:58:05.557Z,9.77
2023-02-16T08:59:05.511Z,9.92
2023-02-16T09:00:05.436Z,10.04
2023-02-16T09:01:05.434Z,10.26
2023-02-16T09:02:05.363Z,10.16
2023-02-16T09:03:05.266Z,10.01
2023-02-16T09:04:05.212Z,10.09
2023-02-16T09:05:05.144Z,10.16
2023-02-16T09:06:05.466Z,10.04
2023-02-16T09:07:05.042Z,10.06
2023-02-16T09:08:04.963Z,10.35
2023-02-16T09:09:04.901Z,10.46
2023-02-16T09:10:04.848Z,10.57
2023-02-16T09:11:05.124Z,10.65
2023-02-16T09:12:04.739Z,10.73
2023-02-16T09:13:04.750Z,10.81
2023-02-16T09:14:04.605Z,10.58
2023-02-16T09:15:04.552Z,10.51
2023-02-16T09:16:05.669Z,10.47
2023-02-16T09:17:04.496Z,10.20
2023-02-16T09:18:04.368Z,10.24
2023-02-16T09:19:04.346Z,10.39
2023-02-16T09:20:04.256Z,10.54
2023-02-16T09:21:04.178Z,10.58
2023-02-16T09:22:04.144Z,10.49
2023-02-16T09:23:04.085Z,10.54
2023-02-16T09:24:04.201Z,10.69
2023-02-16T09:25:03.957Z,10.80
2023-02-16T09:26:04.222Z,10.69
2023-02-16T09:27:03.895Z,10.68
2023-02-16T09:28:03.790Z,10.60
2023-02-16T09:29:03.732Z,10.57
2023-02-16T09:30:04.969Z,10.73
2023-02-16T09:31:03.955Z,10.63
2023-02-16T09:32:03.603Z,10.62
2023-02-16T09:33:03.538Z,10.57
2023-02-16T09:34:03.452Z,10.95
2023-02-16T09:35:03.389Z,10.94
2023-02-16T09:36:03.688Z,10.93
2023-02-16T09:37:03.280Z,11.02
2023-02-16T09:38:03.213Z,11.23
2023-02-16T09:39:03.160Z,11.59
2023-02-16T09:40:03.108Z,11.59
2023-02-16T09:41:03.028Z,11.84
2023-02-16T09:42:02.973Z,11.41
2023-02-16T09:43:02.907Z,11.51
2023-02-16T09:44:02.851Z,11.60
2023-02-16T09:45:02.789Z,11.45
2023-02-16T09:46:03.239Z,11.33
2023-02-16T09:47:02.676Z,11.39
2023-02-16T09:48:02.640Z,11.31
2023-02-16T09:49:02.558Z,11.62
2023-02-16T09:50:02.557Z,11.77
2023-02-16T09:51:02.712Z,11.79
2023-02-16T09:52:02.408Z,11.82
2023-02-16T09:53:02.346Z,11.70
2023-02-16T09:54:02.259Z,11.59
2023-02-16T09:55:02.263Z,11.79
2023-02-16T09:56:02.704Z,11.84
2023-02-16T09:57:02.110Z,12.12
2023-02-16T09:58:02.165Z,12.11
2023-02-16T09:59:01.968Z,12.15
2023-02-16T10:00:01.921Z,12.12
2023-02-16T10:01:01.931Z,12.23
2023-02-16T10:02:01.800Z,12.12
2023-02-16T10:03:01.813Z,11.81
2023-02-16T10:04:01.734Z,11.53
2023-02-16T10:05:01.609Z,11.35
2023-02-16T10:06:01.686Z,11.41
2023-02-16T10:07:01.603Z,11.69
2023-02-16T10:08:01.441Z,12.13
2023-02-16T10:09:01.445Z,12.34
2023-02-16T10:10:01.322Z,12.26
2023-02-16T10:11:01.334Z,12.37
2023-02-16T10:12:01.265Z,12.63
2023-02-16T10:13:01.158Z,12.67
2023-02-16T10:14:01.087Z,12.76
2023-02-16T10:15:01.035Z,12.89
2023-02-16T10:16:01.110Z,12.87
2023-02-16T10:17:00.986Z,12.96
2023-02-16T10:18:00.880Z,12.80
2023-02-16T10:19:00.893Z,12.74
2023-02-16T10:20:00.778Z,12.66
2023-02-16T10:21:00.687Z,12.55
2023-02-16T10:22:00.636Z,12.62
2023-02-16T10:23:00.572Z,12.61
2023-02-16T10:24:00.514Z,12.70
2023-02-16T10:25:00.870Z,12.77
2023-02-16T10:26:00.794Z,12.54
2023-02-16T10:27:00.344Z,12.25
2023-02-16T10:28:00.296Z,12.21
2023-02-16T10:29:00.212Z,12.25
2023-02-16T10:30:00.258Z,12.19
2023-02-16T10:31:00.217Z,12.07
2023-02-16T10:32:00.143Z,12.12
2023-02-16T10:32:59.977Z,11.98
2023-02-16T10:33:59.932Z,12.03
2023-02-16T10:34:59.854Z,12.30
2023-02-16T10:35:59.796Z,12.54
2023-02-16T10:36:59.744Z,12.66
2023-02-16T10:37:59.838Z,12.94
2023-02-16T10:38:59.617Z,13.19
2023-02-16T10:39:59.613Z,13.16
2023-02-16T10:40:59.506Z,13.27
2023-02-16T10:41:59.459Z,13.51
2023-02-16T10:42:59.389Z,13.04
2023-02-16T10:43:59.327Z,13.01
2023-02-16T10:44:59.264Z,12.69
2023-02-16T10:45:59.297Z,12.56
2023-02-16T10:46:59.151Z,12.80
2023-02-16T10:47:59.112Z,12.88
2023-02-16T10:48:59.060Z,12.94
2023-02-16T10:49:59.478Z,13.13
2023-02-16T10:50:59.019Z,13.14
2023-02-16T10:51:59.038Z,12.85
2023-02-16T10:52:58.793Z,12.43
2023-02-16T10:53:58.758Z,12.44
2023-02-16T10:54:58.708Z,12.54
2023-02-16T10:55:58.620Z,12.12
2023-02-16T10:56:58.566Z,11.97
2023-02-16T10:57:58.532Z,11.96
2023-02-16T10:58:58.453Z,11.81
2023-02-16T10:59:58.397Z,11.81
2023-02-16T11:00:58.325Z,11.78
2023-02-16T11:01:58.281Z,11.93
2023-02-16T11:02:58.207Z,12.01
2023-02-16T11:03:58.145Z,12.03
2023-02-16T11:04:58.091Z,11.96
2023-02-16T11:05:58.024Z,11.98
2023-02-16T11:06:57.970Z,12.00
2023-02-16T11:07:57.960Z,11.88
2023-02-16T11:08:57.904Z,11.88
2023-02-16T11:09:57.801Z,12.03
2023-02-16T11:10:57.733Z,12.15
2023-02-16T11:11:57.668Z,12.23
2023-02-16T11:12:57.608Z,12.00
2023-02-16T11:13:59.210Z,12.26
2023-02-16T11:14:57.671Z,12.21
2023-02-16T11:15:57.566Z,12.01
2023-02-16T11:16:57.405Z,11.90
2023-02-16T11:17:57.925Z,12.07
2023-02-16T11:18:57.292Z,12.15
2023-02-16T11:19:57.200Z,12.13
2023-02-16T11:20:57.151Z,12.04
2023-02-16T11:21:59.351Z,12.15
2023-02-16T11:22:57.114Z,12.00
2023-02-16T11:23:57.003Z,11.81
2023-02-16T11:24:56.954Z,12.03
2023-02-16T11:25:56.899Z,12.07
2023-02-16T11:26:56.821Z,12.25
2023-02-16T11:27:56.778Z,12.49
2023-02-16T11:28:57.331Z,12.19
2023-02-16T11:29:56.650Z,12.07
2023-02-16T11:30:56.707Z,11.69
2023-02-16T11:31:56.703Z,11.62
2023-02-16T11:32:56.445Z,11.75
2023-02-16T11:33:56.362Z,11.78
2023-02-16T11:34:56.463Z,11.87
2023-02-16T11:35:56.264Z,11.97
2023-02-16T11:36:56.297Z,12.23
2023-02-16T11:37:56.197Z,12.29
2023-02-16T11:38:56.119Z,12.04
2023-02-16T11:39:56.052Z,11.79
2023-02-16T11:40:55.972Z,11.72
2023-02-16T11:41:55.920Z,11.72
2023-02-16T11:42:55.877Z,11.75
2023-02-16T11:43:55.812Z,11.63
2023-02-16T11:44:55.719Z,11.67
2023-02-16T11:45:55.718Z,11.66
2023-02-16T11:46:55.618Z,11.60
2023-02-16T11:47:56.417Z,11.41
2023-02-16T11:48:55.464Z,11.56
2023-02-16T11:49:55.600Z,11.36
2023-02-16T11:50:55.330Z,11.44
2023-02-16T11:51:55.278Z,11.44
2023-02-16T11:52:55.213Z,11.38
2023-02-16T11:53:55.152Z,11.44
2023-02-16T11:54:55.108Z,11.59
2023-02-16T11:55:55.064Z,11.67
2023-02-16T11:56:55.220Z,11.60
2023-02-16T11:57:54.911Z,11.38
2023-02-16T11:58:54.860Z,11.51
2023-02-16T11:59:54.802Z,11.54
2023-02-16T12:00:54.727Z,11.51
2023-02-16T12:01:54.711Z,11.62
2023-02-16T12:02:54.639Z,11.62
2023-02-16T12:03:54.598Z,11.62
2023-02-16T12:04:54.614Z,11.79
2023-02-16T12:05:54.410Z,11.81
2023-02-16T12:06:54.366Z,11.77
2023-02-16T12:07:54.332Z,11.82
2023-02-16T12:08:54.267Z,11.78
2023-02-16T12:09:54.251Z,11.81
2023-02-16T12:10:54.091Z,11.77
2023-02-16T12:11:54.048Z,11.74
2023-02-16T12:12:54.048Z,11.77
2023-02-16T12:13:53.921Z,11.85
2023-02-16T12:14:53.864Z,11.84
2023-02-16T12:15:53.859Z,11.82
2023-02-16T12:16:53.768Z,11.74
2023-02-16T12:17:53.660Z,11.81
2023-02-16T12:18:53.615Z,11.72
2023-02-16T12:19:53.558Z,11.74
2023-02-16T12:20:54.478Z,11.77
2023-02-16T12:21:53.410Z,11.84
2023-02-16T12:22:53.440Z,11.82
2023-02-16T12:23:53.362Z,11.81
2023-02-16T12:24:53.234Z,11.87
2023-02-16T12:25:53.216Z,11.85
2023-02-16T12:26:53.114Z,11.97
2023-02-16T12:27:53.038Z,11.96
2023-02-16T12:28:53.000Z,11.97
2023-02-16T12:29:53.010Z,12.03
2023-02-16T12:30:52.932Z,12.12
2023-02-16T12:31:52.876Z,12.07
2023-02-16T12:32:52.726Z,12.07
2023-02-16T12:33:52.793Z,12.07
2023-02-16T12:34:52.859Z,12.04
2023-02-16T12:35:52.769Z,12.00
2023-02-16T12:36:53.079Z,12.03
2023-02-16T12:37:52.501Z,12.00
2023-02-16T12:38:52.443Z,12.12
2023-02-16T12:39:52.292Z,12.03
2023-02-16T12:40:52.215Z,12.08
2023-02-16T12:41:52.243Z,12.19
2023-02-16T12:42:52.254Z,12.16
2023-02-16T12:43:52.039Z,12.29
2023-02-16T12:44:51.968Z,12.15
2023-02-16T12:45:51.973Z,12.12
2023-02-16T12:46:51.831Z,12.08
2023-02-16T12:47:51.789Z,12.15
2023-02-16T12:48:51.836Z,12.15
2023-02-16T12:49:51.645Z,12.15
2023-02-16T12:50:51.578Z,12.13
2023-02-16T12:51:51.536Z,12.16
2023-02-16T12:52:51.440Z,12.12
2023-02-16T12:53:51.373Z,12.13
2023-02-16T12:54:51.326Z,12.12
2023-02-16T12:55:51.436Z,12.18
2023-02-16T12:56:51.319Z,12.13
2023-02-16T12:57:51.141Z,12.12
2023-02-16T12:58:51.055Z,12.13
2023-02-16T12:59:51.001Z,12.16
2023-02-16T13:00:50.987Z,12.15
2023-02-16T13:01:50.876Z,12.26
2023-02-16T13:02:50.819Z,12.23
2023-02-16T13:03:51.049Z,12.29
2023-02-16T13:04:50.741Z,12.29
2023-02-16T13:05:50.689Z,12.23
2023-02-16T13:06:51.595Z,12.19
2023-02-16T13:07:50.500Z,12.36
2023-02-16T13:08:50.423Z,12.33
2023-02-16T13:09:50.371Z,12.34
2023-02-16T13:10:50.311Z,12.38
2023-02-16T13:11:50.261Z,12.29
2023-02-16T13:12:50.180Z,12.33
2023-02-16T13:13:50.190Z,12.38
2023-02-16T13:14:53.222Z,12.36
2023-02-16T13:15:50.044Z,12.33
2023-02-16T13:16:50.015Z,12.51
2023-02-16T13:17:49.861Z,12.49
2023-02-16T13:18:49.869Z,12.56
2023-02-16T13:19:49.752Z,12.55
2023-02-16T13:20:49.686Z,12.54
2023-02-16T13:21:51.547Z,12.58
2023-02-16T13:22:49.550Z,12.54
2023-02-16T13:23:49.500Z,12.51
2023-02-16T13:24:49.433Z,12.61
2023-02-16T13:25:49.616Z,12.51
2023-02-16T13:26:49.328Z,12.51
2023-02-16T13:27:49.294Z,12.58
2023-02-16T13:28:49.248Z,12.61
2023-02-16T13:29:49.099Z,12.58
2023-02-16T13:30:49.359Z,12.58
2023-02-16T13:31:49.123Z,12.66
2023-02-16T13:32:48.918Z,12.63
2023-02-16T13:33:48.863Z,12.62
2023-02-16T13:34:48.779Z,12.71
2023-02-16T13:35:48.750Z,12.70
2023-02-16T13:36:48.669Z,12.63
2023-02-16T13:37:48.587Z,12.61
2023-02-16T13:38:48.519Z,12.59
2023-02-16T13:39:48.504Z,12.66
2023-02-16T13:40:48.459Z,12.69
2023-02-16T13:41:48.413Z,12.69
2023-02-16T13:42:48.580Z,12.63
2023-02-16T13:43:48.246Z,12.70
2023-02-16T13:44:48.187Z,12.66
2023-02-16T13:45:48.182Z,12.74
2023-02-16T13:46:48.187Z,12.77
2023-02-16T13:47:47.964Z,12.74
2023-02-16T13:48:47.936Z,12.73
2023-02-16T13:49:47.840Z,12.74
2023-02-16T13:50:48.648Z,12.70
2023-02-16T13:51:47.819Z,12.74
2023-02-16T13:52:47.755Z,12.74
2023-02-16T13:53:47.621Z,12.73
2023-02-16T13:54:47.749Z,12.70
2023-02-16T13:55:47.510Z,12.69
2023-02-16T13:56:47.411Z,12.61
2023-02-16T13:57:50.443Z,12.56
2023-02-16T13:58:47.292Z,12.51
2023-02-16T13:59:47.955Z,12.58
2023-02-16T14:00:47.190Z,12.56
2023-02-16T14:01:47.114Z,12.51
2023-02-16T14:02:47.084Z,12.55
2023-02-16T14:03:47.014Z,12.55
2023-02-16T14:04:46.925Z,12.54
2023-02-16T14:05:46.826Z,12.56
2023-02-16T14:06:46.830Z,12.54
2023-02-16T14:07:46.692Z,12.49
2023-02-16T14:08:46.683Z,12.43
2023-02-16T14:09:46.605Z,12.48
2023-02-16T14:10:46.542Z,12.55
2023-02-16T14:11:46.434Z,12.54
2023-02-16T14:12:46.496Z,12.55
2023-02-16T14:13:46.315Z,12.62
2023-02-16T14:14:46.337Z,12.69
2023-02-16T14:15:46.293Z,12.63
2023-02-16T14:16:46.179Z,12.66
2023-02-16T14:17:46.050Z,12.67
2023-02-16T14:18:45.988Z,12.70
2023-02-16T14:19:46.705Z,12.71
2023-02-16T14:20:45.879Z,12.80
2023-02-16T14:21:46.019Z,12.70
2023-02-16T14:22:45.847Z,12.80
2023-02-16T14:23:45.700Z,12.74
2023-02-16T14:24:45.643Z,12.76
2023-02-16T14:25:45.594Z,12.89
2023-02-16T14:26:45.559Z,12.73
2023-02-16T14:27:45.516Z,12.79
2023-02-16T14:28:45.981Z,12.74
2023-02-16T14:29:45.339Z,12.67
2023-02-16T14:30:45.328Z,12.74
2023-02-16T14:31:45.245Z,12.77
2023-02-16T14:32:45.973Z,12.69
2023-02-16T14:33:45.055Z,12.70
2023-02-16T14:34:45.073Z,12.73
2023-02-16T14:35:44.994Z,12.67
2023-02-16T14:36:44.886Z,12.71
2023-02-16T14:37:44.781Z,12.70
2023-02-16T14:38:44.812Z,12.67
2023-02-16T14:40:06.455Z,12.61
2023-02-16T14:40:44.595Z,12.62
2023-02-16T14:41:44.546Z,12.55
2023-02-16T14:42:44.594Z,12.58
2023-02-16T14:43:44.517Z,12.58
2023-02-16T14:44:44.432Z,12.55
2023-02-16T14:45:44.265Z,12.52
2023-02-16T14:46:44.270Z,12.48
2023-02-16T14:47:44.148Z,12.49
2023-02-16T14:48:44.158Z,12.46
2023-02-16T14:49:44.053Z,12.48
2023-02-16T14:50:44.088Z,12.40
2023-02-16T14:51:44.028Z,12.43
2023-02-16T14:52:43.811Z,12.34
2023-02-16T14:53:43.790Z,12.46
2023-02-16T14:54:43.756Z,12.40
2023-02-16T14:55:51.290Z,12.43
2023-02-16T14:57:37.029Z,12.37
2023-02-16T14:58:36.919Z,12.41
2023-02-16T14:59:36.849Z,12.46
2023-02-16T15:00:36.787Z,12.44
2023-02-16T15:01:36.753Z,12.46
2023-02-16T15:02:36.754Z,12.48
2023-02-16T15:03:36.647Z,12.44
2023-02-16T15:04:36.550Z,12.40
2023-02-16T15:05:36.463Z,12.33
2023-02-16T15:06:36.406Z,12.44
2023-02-16T15:07:36.339Z,12.51
2023-02-16T15:08:36.264Z,12.44
2023-02-16T15:09:36.226Z,12.49
2023-02-16T15:10:36.139Z,12.36
2023-02-16T15:11:36.076Z,12.46
2023-02-16T15:12:36.014Z,12.44
2023-02-16T15:13:35.951Z,12.43
2023-02-16T15:14:35.887Z,12.38
2023-02-16T15:15:35.865Z,12.37
2023-02-16T15:16:35.761Z,12.40
2023-02-16T15:17:35.712Z,12.37
2023-02-16T15:18:35.637Z,12.38
2023-02-16T15:19:35.580Z,12.37
2023-02-16T15:20:35.530Z,12.33
2023-02-16T15:21:35.481Z,12.37
2023-02-16T15:22:35.372Z,12.37
2023-02-16T15:23:35.321Z,12.31
2023-02-16T15:24:35.262Z,12.31
2023-02-16T15:25:35.199Z,12.34
2023-02-16T15:26:35.126Z,12.34
2023-02-16T15:27:35.091Z,12.33
2023-02-16T15:28:35.032Z,12.38
2023-02-16T15:29:34.960Z,12.33
2023-02-16T15:30:34.880Z,12.43
2023-02-16T15:31:34.926Z,12.38